sensor_id;sensor_type;location;lat;lon;timestamp;P1;durP1;ratioP1;P2;durP2;ratioP2
12921;SDS011;6528;48.086;16.282;2024-01-30T00:00:33;7.03;;;6.43;;
12921;SDS011;6528;48.086;16.282;2024-01-30T00:03:00;6.73;;;6.10;;
12921;SDS011;6528;48.086;16.282;2024-01-30T00:05:28;6.87;;;6.37;;
12921;SDS011;6528;48.086;16.282;2024-01-30T00:07:55;6.33;;;5.83;;
12921;SDS011;6528;48.086;16.282;2024-01-30T00:10:22;6.60;;;6.10;;
12921;SDS011;6528;48.086;16.282;2024-01-30T00:12:50;6.73;;;6.23;;
12921;SDS011;6528;48.086;16.282;2024-01-30T00:15:17;7.50;;;6.90;;
12921;SDS011;6528;48.086;16.282;2024-01-30T00:17:45;7.37;;;6.73;;
12921;SDS011;6528;48.086;16.282;2024-01-30T00:20:12;7.00;;;6.47;;
12921;SDS011;6528;48.086;16.282;2024-01-30T00:22:40;7.37;;;6.83;;
12921;SDS011;6528;48.086;16.282;2024-01-30T00:25:07;7.20;;;6.60;;
12921;SDS011;6528;48.086;16.282;2024-01-30T00:27:35;7.33;;;6.73;;
12921;SDS011;6528;48.086;16.282;2024-01-30T00:30:02;7.33;;;6.63;;
12921;SDS011;6528;48.086;16.282;2024-01-30T00:32:31;7.60;;;6.90;;
12921;SDS011;6528;48.086;16.282;2024-01-30T00:34:58;7.20;;;6.60;;
12921;SDS011;6528;48.086;16.282;2024-01-30T00:37:26;7.90;;;7.13;;
12921;SDS011;6528;48.086;16.282;2024-01-30T00:39:53;7.27;;;6.67;;
12921;SDS011;6528;48.086;16.282;2024-01-30T00:42:21;7.10;;;6.60;;
12921;SDS011;6528;48.086;16.282;2024-01-30T00:44:50;7.43;;;6.83;;
12921;SDS011;6528;48.086;16.282;2024-01-30T00:47:17;6.10;;;5.63;;
12921;SDS011;6528;48.086;16.282;2024-01-30T00:49:45;7.07;;;6.47;;
12921;SDS011;6528;48.086;16.282;2024-01-30T00:52:12;8.00;;;7.20;;
12921;SDS011;6528;48.086;16.282;2024-01-30T00:54:40;7.40;;;6.70;;
12921;SDS011;6528;48.086;16.282;2024-01-30T00:57:07;7.30;;;6.60;;
12921;SDS011;6528;48.086;16.282;2024-01-30T00:59:34;7.67;;;6.97;;
12921;SDS011;6528;48.086;16.282;2024-01-30T01:02:02;6.80;;;6.30;;
12921;SDS011;6528;48.086;16.282;2024-01-30T01:04:30;7.83;;;7.20;;
12921;SDS011;6528;48.086;16.282;2024-01-30T01:06:57;7.33;;;6.80;;
12921;SDS011;6528;48.086;16.282;2024-01-30T01:09:25;7.10;;;6.50;;
12921;SDS011;6528;48.086;16.282;2024-01-30T01:11:53;7.17;;;6.47;;
12921;SDS011;6528;48.086;16.282;2024-01-30T01:14:20;7.37;;;6.67;;
12921;SDS011;6528;48.086;16.282;2024-01-30T01:16:47;7.67;;;6.97;;
12921;SDS011;6528;48.086;16.282;2024-01-30T01:19:15;7.23;;;6.63;;
12921;SDS011;6528;48.086;16.282;2024-01-30T01:21:42;6.73;;;6.23;;
12921;SDS011;6528;48.086;16.282;2024-01-30T01:24:10;6.30;;;5.70;;
12921;SDS011;6528;48.086;16.282;2024-01-30T01:26:37;6.97;;;6.37;;
12921;SDS011;6528;48.086;16.282;2024-01-30T01:29:06;7.10;;;6.50;;
12921;SDS011;6528;48.086;16.282;2024-01-30T01:31:38;7.50;;;6.67;;
12921;SDS011;6528;48.086;16.282;2024-01-30T01:34:10;7.97;;;7.20;;
12921;SDS011;6528;48.086;16.282;2024-01-30T01:36:39;6.53;;;5.93;;
12921;SDS011;6528;48.086;16.282;2024-01-30T01:39:06;6.80;;;6.30;;
12921;SDS011;6528;48.086;16.282;2024-01-30T01:41:35;6.80;;;6.30;;
12921;SDS011;6528;48.086;16.282;2024-01-30T01:44:02;7.10;;;6.50;;
12921;SDS011;6528;48.086;16.282;2024-01-30T01:46:30;6.83;;;6.13;;
12921;SDS011;6528;48.086;16.282;2024-01-30T01:48:59;7.27;;;6.50;;
12921;SDS011;6528;48.086;16.282;2024-01-30T01:51:29;6.47;;;5.97;;
12921;SDS011;6528;48.086;16.282;2024-01-30T01:53:58;6.77;;;6.27;;
12921;SDS011;6528;48.086;16.282;2024-01-30T01:56:28;7.53;;;6.93;;
12921;SDS011;6528;48.086;16.282;2024-01-30T01:58:59;7.27;;;6.57;;
12921;SDS011;6528;48.086;16.282;2024-01-30T02:01:31;9.70;;;8.17;;
12921;SDS011;6528;48.086;16.282;2024-01-30T02:04:00;7.47;;;6.83;;
12921;SDS011;6528;48.086;16.282;2024-01-30T02:06:27;6.83;;;6.33;;
12921;SDS011;6528;48.086;16.282;2024-01-30T02:08:55;7.10;;;6.50;;
12921;SDS011;6528;48.086;16.282;2024-01-30T02:11:22;7.63;;;7.00;;
12921;SDS011;6528;48.086;16.282;2024-01-30T02:13:50;7.13;;;6.53;;
12921;SDS011;6528;48.086;16.282;2024-01-30T02:16:17;7.30;;;6.70;;
12921;SDS011;6528;48.086;16.282;2024-01-30T02:18:45;7.30;;;6.70;;
12921;SDS011;6528;48.086;16.282;2024-01-30T02:21:17;7.10;;;6.47;;
12921;SDS011;6528;48.086;16.282;2024-01-30T02:23:48;7.23;;;6.67;;
12921;SDS011;6528;48.086;16.282;2024-01-30T02:26:17;6.93;;;6.37;;
12921;SDS011;6528;48.086;16.282;2024-01-30T02:28:44;6.67;;;6.07;;
12921;SDS011;6528;48.086;16.282;2024-01-30T02:31:12;7.47;;;6.87;;
12921;SDS011;6528;48.086;16.282;2024-01-30T02:33:39;6.53;;;6.03;;
12921;SDS011;6528;48.086;16.282;2024-01-30T02:36:06;6.70;;;6.10;;
12921;SDS011;6528;48.086;16.282;2024-01-30T02:38:34;6.57;;;5.97;;
12921;SDS011;6528;48.086;16.282;2024-01-30T02:41:01;7.50;;;6.70;;
12921;SDS011;6528;48.086;16.282;2024-01-30T02:43:29;6.60;;;6.07;;
12921;SDS011;6528;48.086;16.282;2024-01-30T02:45:56;7.60;;;7.00;;
12921;SDS011;6528;48.086;16.282;2024-01-30T02:48:24;7.47;;;6.77;;
12921;SDS011;6528;48.086;16.282;2024-01-30T02:50:52;7.73;;;7.13;;
12921;SDS011;6528;48.086;16.282;2024-01-30T02:53:19;7.37;;;6.67;;
12921;SDS011;6528;48.086;16.282;2024-01-30T02:55:46;6.50;;;6.00;;
12921;SDS011;6528;48.086;16.282;2024-01-30T02:58:14;6.27;;;5.77;;
12921;SDS011;6528;48.086;16.282;2024-01-30T03:00:41;6.50;;;6.00;;
12921;SDS011;6528;48.086;16.282;2024-01-30T03:03:09;7.13;;;6.63;;
12921;SDS011;6528;48.086;16.282;2024-01-30T03:05:36;6.73;;;6.20;;
12921;SDS011;6528;48.086;16.282;2024-01-30T03:08:04;7.07;;;6.47;;
12921;SDS011;6528;48.086;16.282;2024-01-30T03:10:31;6.50;;;6.00;;
12921;SDS011;6528;48.086;16.282;2024-01-30T03:12:59;7.60;;;6.90;;
12921;SDS011;6528;48.086;16.282;2024-01-30T03:15:26;7.13;;;6.50;;
12921;SDS011;6528;48.086;16.282;2024-01-30T03:17:54;7.30;;;6.70;;
12921;SDS011;6528;48.086;16.282;2024-01-30T03:20:21;6.27;;;5.77;;
12921;SDS011;6528;48.086;16.282;2024-01-30T03:22:48;7.00;;;6.50;;
12921;SDS011;6528;48.086;16.282;2024-01-30T03:25:16;6.83;;;6.33;;
12921;SDS011;6528;48.086;16.282;2024-01-30T03:27:43;6.70;;;6.13;;
12921;SDS011;6528;48.086;16.282;2024-01-30T03:30:11;6.50;;;5.83;;
12921;SDS011;6528;48.086;16.282;2024-01-30T03:32:38;7.60;;;6.90;;
12921;SDS011;6528;48.086;16.282;2024-01-30T03:35:06;6.63;;;6.13;;
12921;SDS011;6528;48.086;16.282;2024-01-30T03:37:33;6.63;;;6.13;;
12921;SDS011;6528;48.086;16.282;2024-01-30T03:40:01;7.13;;;6.60;;
12921;SDS011;6528;48.086;16.282;2024-01-30T03:42:29;6.80;;;6.30;;
12921;SDS011;6528;48.086;16.282;2024-01-30T03:44:57;7.57;;;6.87;;
12921;SDS011;6528;48.086;16.282;2024-01-30T03:47:24;7.40;;;6.83;;
12921;SDS011;6528;48.086;16.282;2024-01-30T03:49:52;7.73;;;7.03;;
12921;SDS011;6528;48.086;16.282;2024-01-30T03:52:19;6.70;;;6.20;;
12921;SDS011;6528;48.086;16.282;2024-01-30T03:54:47;6.67;;;6.17;;
12921;SDS011;6528;48.086;16.282;2024-01-30T03:57:14;6.40;;;5.90;;
12921;SDS011;6528;48.086;16.282;2024-01-30T03:59:44;6.83;;;6.23;;
12921;SDS011;6528;48.086;16.282;2024-01-30T04:02:11;7.37;;;6.70;;
12921;SDS011;6528;48.086;16.282;2024-01-30T04:04:39;6.60;;;6.10;;
12921;SDS011;6528;48.086;16.282;2024-01-30T04:07:06;7.10;;;6.50;;
12921;SDS011;6528;48.086;16.282;2024-01-30T04:09:34;6.10;;;5.60;;
12921;SDS011;6528;48.086;16.282;2024-01-30T04:12:01;6.57;;;6.07;;
12921;SDS011;6528;48.086;16.282;2024-01-30T04:14:29;7.20;;;6.67;;
12921;SDS011;6528;48.086;16.282;2024-01-30T04:16:56;5.63;;;5.23;;
12921;SDS011;6528;48.086;16.282;2024-01-30T04:19:24;6.13;;;5.67;;
12921;SDS011;6528;48.086;16.282;2024-01-30T04:21:51;6.57;;;6.07;;
12921;SDS011;6528;48.086;16.282;2024-01-30T04:24:19;5.93;;;5.43;;
12921;SDS011;6528;48.086;16.282;2024-01-30T04:26:46;7.43;;;6.80;;
12921;SDS011;6528;48.086;16.282;2024-01-30T04:29:13;6.47;;;5.90;;
12921;SDS011;6528;48.086;16.282;2024-01-30T04:31:41;6.30;;;5.80;;
12921;SDS011;6528;48.086;16.282;2024-01-30T04:34:08;6.27;;;5.77;;
12921;SDS011;6528;48.086;16.282;2024-01-30T04:36:35;6.67;;;6.07;;
12921;SDS011;6528;48.086;16.282;2024-01-30T04:39:03;6.43;;;5.93;;
12921;SDS011;6528;48.086;16.282;2024-01-30T04:41:30;6.67;;;6.10;;
12921;SDS011;6528;48.086;16.282;2024-01-30T04:43:58;6.43;;;5.93;;
12921;SDS011;6528;48.086;16.282;2024-01-30T04:46:25;5.80;;;5.30;;
12921;SDS011;6528;48.086;16.282;2024-01-30T04:48:52;6.47;;;5.90;;
12921;SDS011;6528;48.086;16.282;2024-01-30T04:51:20;6.33;;;5.83;;
12921;SDS011;6528;48.086;16.282;2024-01-30T04:53:47;6.00;;;5.50;;
12921;SDS011;6528;48.086;16.282;2024-01-30T04:56:14;6.57;;;5.97;;
12921;SDS011;6528;48.086;16.282;2024-01-30T04:58:42;7.10;;;6.50;;
12921;SDS011;6528;48.086;16.282;2024-01-30T05:01:09;6.37;;;5.87;;
12921;SDS011;6528;48.086;16.282;2024-01-30T05:03:41;5.87;;;5.30;;
12921;SDS011;6528;48.086;16.282;2024-01-30T05:06:08;5.60;;;5.10;;
12921;SDS011;6528;48.086;16.282;2024-01-30T05:08:36;6.27;;;5.77;;
12921;SDS011;6528;48.086;16.282;2024-01-30T05:11:04;6.47;;;5.40;;
12921;SDS011;6528;48.086;16.282;2024-01-30T05:13:32;6.23;;;5.73;;
12921;SDS011;6528;48.086;16.282;2024-01-30T05:16:01;6.03;;;5.43;;
12921;SDS011;6528;48.086;16.282;2024-01-30T05:18:30;5.97;;;5.47;;
12921;SDS011;6528;48.086;16.282;2024-01-30T05:20:57;5.20;;;4.90;;
12921;SDS011;6528;48.086;16.282;2024-01-30T05:23:25;6.60;;;6.10;;
12921;SDS011;6528;48.086;16.282;2024-01-30T05:25:52;6.33;;;5.83;;
12921;SDS011;6528;48.086;16.282;2024-01-30T05:28:19;6.10;;;5.60;;
12921;SDS011;6528;48.086;16.282;2024-01-30T05:30:47;5.50;;;5.00;;
12921;SDS011;6528;48.086;16.282;2024-01-30T05:33:14;6.20;;;5.70;;
12921;SDS011;6528;48.086;16.282;2024-01-30T05:35:42;6.47;;;5.97;;
12921;SDS011;6528;48.086;16.282;2024-01-30T05:38:10;5.57;;;5.00;;
12921;SDS011;6528;48.086;16.282;2024-01-30T05:40:39;6.30;;;5.70;;
12921;SDS011;6528;48.086;16.282;2024-01-30T05:43:06;6.10;;;5.60;;
12921;SDS011;6528;48.086;16.282;2024-01-30T05:45:34;6.27;;;5.67;;
12921;SDS011;6528;48.086;16.282;2024-01-30T05:48:02;5.43;;;4.93;;
12921;SDS011;6528;48.086;16.282;2024-01-30T05:50:30;5.90;;;5.40;;
12921;SDS011;6528;48.086;16.282;2024-01-30T05:52:57;5.63;;;5.23;;
12921;SDS011;6528;48.086;16.282;2024-01-30T05:55:24;5.30;;;5.00;;
12921;SDS011;6528;48.086;16.282;2024-01-30T05:57:52;6.13;;;5.60;;
12921;SDS011;6528;48.086;16.282;2024-01-30T06:00:19;6.37;;;5.87;;
12921;SDS011;6528;48.086;16.282;2024-01-30T06:02:46;5.83;;;5.33;;
12921;SDS011;6528;48.086;16.282;2024-01-30T06:05:13;5.50;;;5.03;;
12921;SDS011;6528;48.086;16.282;2024-01-30T06:07:41;6.30;;;5.80;;
12921;SDS011;6528;48.086;16.282;2024-01-30T06:10:09;6.33;;;5.77;;
12921;SDS011;6528;48.086;16.282;2024-01-30T06:12:36;6.10;;;5.33;;
12921;SDS011;6528;48.086;16.282;2024-01-30T06:15:04;5.67;;;5.20;;
12921;SDS011;6528;48.086;16.282;2024-01-30T06:17:33;5.70;;;5.30;;
12921;SDS011;6528;48.086;16.282;2024-01-30T06:20:00;6.40;;;5.90;;
12921;SDS011;6528;48.086;16.282;2024-01-30T06:22:28;6.10;;;5.60;;
12921;SDS011;6528;48.086;16.282;2024-01-30T06:24:55;6.23;;;5.63;;
12921;SDS011;6528;48.086;16.282;2024-01-30T06:27:22;6.67;;;6.07;;
12921;SDS011;6528;48.086;16.282;2024-01-30T06:29:50;8.93;;;5.40;;
12921;SDS011;6528;48.086;16.282;2024-01-30T06:32:16;7.43;;;5.70;;
12921;SDS011;6528;48.086;16.282;2024-01-30T06:34:44;5.77;;;5.30;;
12921;SDS011;6528;48.086;16.282;2024-01-30T06:37:12;5.80;;;5.27;;
12921;SDS011;6528;48.086;16.282;2024-01-30T06:39:39;6.80;;;5.67;;
12921;SDS011;6528;48.086;16.282;2024-01-30T06:42:06;6.93;;;6.27;;
12921;SDS011;6528;48.086;16.282;2024-01-30T06:44:34;6.63;;;6.03;;
12921;SDS011;6528;48.086;16.282;2024-01-30T06:47:01;6.87;;;5.50;;
12921;SDS011;6528;48.086;16.282;2024-01-30T06:49:29;6.57;;;6.07;;
12921;SDS011;6528;48.086;16.282;2024-01-30T06:51:56;6.13;;;5.60;;
12921;SDS011;6528;48.086;16.282;2024-01-30T06:54:23;7.90;;;5.67;;
12921;SDS011;6528;48.086;16.282;2024-01-30T06:56:50;7.50;;;5.70;;
12921;SDS011;6528;48.086;16.282;2024-01-30T06:59:17;5.87;;;5.27;;
12921;SDS011;6528;48.086;16.282;2024-01-30T07:01:45;5.80;;;5.30;;
12921;SDS011;6528;48.086;16.282;2024-01-30T07:04:12;6.13;;;5.40;;
12921;SDS011;6528;48.086;16.282;2024-01-30T07:06:40;6.00;;;5.50;;
12921;SDS011;6528;48.086;16.282;2024-01-30T07:09:08;6.13;;;5.63;;
12921;SDS011;6528;48.086;16.282;2024-01-30T07:11:35;6.53;;;5.93;;
12921;SDS011;6528;48.086;16.282;2024-01-30T07:14:02;5.60;;;5.17;;
12921;SDS011;6528;48.086;16.282;2024-01-30T07:16:32;5.80;;;5.40;;
12921;SDS011;6528;48.086;16.282;2024-01-30T07:19:00;5.63;;;5.13;;
12921;SDS011;6528;48.086;16.282;2024-01-30T07:21:27;6.50;;;5.90;;
12921;SDS011;6528;48.086;16.282;2024-01-30T07:23:55;5.97;;;5.43;;
12921;SDS011;6528;48.086;16.282;2024-01-30T07:26:22;6.83;;;6.30;;
12921;SDS011;6528;48.086;16.282;2024-01-30T07:28:50;7.20;;;6.60;;
12921;SDS011;6528;48.086;16.282;2024-01-30T07:31:17;6.37;;;5.83;;
12921;SDS011;6528;48.086;16.282;2024-01-30T07:33:47;7.10;;;6.50;;
12921;SDS011;6528;48.086;16.282;2024-01-30T07:36:15;6.40;;;5.80;;
12921;SDS011;6528;48.086;16.282;2024-01-30T07:38:42;7.40;;;5.70;;
12921;SDS011;6528;48.086;16.282;2024-01-30T07:41:09;5.87;;;5.37;;
12921;SDS011;6528;48.086;16.282;2024-01-30T07:43:38;7.03;;;5.93;;
12921;SDS011;6528;48.086;16.282;2024-01-30T07:46:05;5.87;;;5.37;;
12921;SDS011;6528;48.086;16.282;2024-01-30T07:48:33;6.30;;;5.80;;
12921;SDS011;6528;48.086;16.282;2024-01-30T07:51:01;7.53;;;6.80;;
12921;SDS011;6528;48.086;16.282;2024-01-30T07:53:30;7.47;;;6.77;;
12921;SDS011;6528;48.086;16.282;2024-01-30T07:55:57;7.10;;;6.50;;
12921;SDS011;6528;48.086;16.282;2024-01-30T07:58:25;6.83;;;6.23;;
12921;SDS011;6528;48.086;16.282;2024-01-30T08:00:54;7.07;;;6.47;;
12921;SDS011;6528;48.086;16.282;2024-01-30T08:03:25;7.00;;;6.30;;
12921;SDS011;6528;48.086;16.282;2024-01-30T08:05:52;7.00;;;6.30;;
12921;SDS011;6528;48.086;16.282;2024-01-30T08:08:19;6.90;;;6.40;;
12921;SDS011;6528;48.086;16.282;2024-01-30T08:10:47;6.70;;;6.10;;
12921;SDS011;6528;48.086;16.282;2024-01-30T08:13:15;6.70;;;6.20;;
12921;SDS011;6528;48.086;16.282;2024-01-30T08:15:43;6.93;;;6.23;;
12921;SDS011;6528;48.086;16.282;2024-01-30T08:18:10;7.53;;;6.93;;
12921;SDS011;6528;48.086;16.282;2024-01-30T08:20:37;7.60;;;6.90;;
12921;SDS011;6528;48.086;16.282;2024-01-30T08:23:05;8.00;;;7.30;;
12921;SDS011;6528;48.086;16.282;2024-01-30T08:25:32;7.93;;;7.07;;
12921;SDS011;6528;48.086;16.282;2024-01-30T08:28:00;6.67;;;6.10;;
12921;SDS011;6528;48.086;16.282;2024-01-30T08:30:28;6.97;;;6.37;;
12921;SDS011;6528;48.086;16.282;2024-01-30T08:32:55;7.77;;;7.10;;
12921;SDS011;6528;48.086;16.282;2024-01-30T08:35:22;6.80;;;6.13;;
12921;SDS011;6528;48.086;16.282;2024-01-30T08:37:50;7.23;;;6.53;;
12921;SDS011;6528;48.086;16.282;2024-01-30T08:40:17;7.20;;;6.50;;
12921;SDS011;6528;48.086;16.282;2024-01-30T08:42:45;7.53;;;6.93;;
12921;SDS011;6528;48.086;16.282;2024-01-30T08:45:12;8.13;;;7.03;;
12921;SDS011;6528;48.086;16.282;2024-01-30T08:47:40;7.40;;;6.80;;
12921;SDS011;6528;48.086;16.282;2024-01-30T08:50:08;7.20;;;6.60;;
12921;SDS011;6528;48.086;16.282;2024-01-30T08:52:35;6.90;;;6.20;;
12921;SDS011;6528;48.086;16.282;2024-01-30T08:55:03;7.20;;;6.60;;
12921;SDS011;6528;48.086;16.282;2024-01-30T08:57:31;7.53;;;6.83;;
12921;SDS011;6528;48.086;16.282;2024-01-30T08:59:58;7.20;;;6.60;;
12921;SDS011;6528;48.086;16.282;2024-01-30T09:02:27;7.17;;;6.60;;
12921;SDS011;6528;48.086;16.282;2024-01-30T09:04:54;7.33;;;6.80;;
12921;SDS011;6528;48.086;16.282;2024-01-30T09:07:22;7.13;;;6.43;;
12921;SDS011;6528;48.086;16.282;2024-01-30T09:09:49;7.80;;;7.10;;
12921;SDS011;6528;48.086;16.282;2024-01-30T09:12:16;7.17;;;6.57;;
12921;SDS011;6528;48.086;16.282;2024-01-30T09:14:44;7.93;;;7.10;;
12921;SDS011;6528;48.086;16.282;2024-01-30T09:17:11;7.00;;;6.40;;
12921;SDS011;6528;48.086;16.282;2024-01-30T09:19:40;7.10;;;6.60;;
12921;SDS011;6528;48.086;16.282;2024-01-30T09:22:08;8.17;;;7.10;;
12921;SDS011;6528;48.086;16.282;2024-01-30T09:24:35;8.07;;;7.37;;
12921;SDS011;6528;48.086;16.282;2024-01-30T09:27:02;7.43;;;6.83;;
12921;SDS011;6528;48.086;16.282;2024-01-30T09:29:30;7.40;;;6.80;;
12921;SDS011;6528;48.086;16.282;2024-01-30T09:31:57;6.67;;;6.13;;
12921;SDS011;6528;48.086;16.282;2024-01-30T09:34:25;7.13;;;6.23;;
12921;SDS011;6528;48.086;16.282;2024-01-30T09:36:52;7.87;;;7.17;;
12921;SDS011;6528;48.086;16.282;2024-01-30T09:39:20;7.43;;;6.83;;
12921;SDS011;6528;48.086;16.282;2024-01-30T09:44:44;6.90;;;6.30;;
12921;SDS011;6528;48.086;16.282;2024-01-30T09:47:13;8.37;;;6.80;;
12921;SDS011;6528;48.086;16.282;2024-01-30T09:49:43;7.50;;;6.87;;
12921;SDS011;6528;48.086;16.282;2024-01-30T09:52:11;6.83;;;6.33;;
12921;SDS011;6528;48.086;16.282;2024-01-30T09:54:39;7.63;;;6.93;;
12921;SDS011;6528;48.086;16.282;2024-01-30T09:57:08;7.87;;;7.17;;
12921;SDS011;6528;48.086;16.282;2024-01-30T09:59:36;6.97;;;6.37;;
12921;SDS011;6528;48.086;16.282;2024-01-30T10:02:03;8.67;;;7.80;;
12921;SDS011;6528;48.086;16.282;2024-01-30T10:04:31;8.87;;;7.40;;
12921;SDS011;6528;48.086;16.282;2024-01-30T10:07:01;7.47;;;6.87;;
12921;SDS011;6528;48.086;16.282;2024-01-30T10:09:32;7.83;;;7.23;;
12921;SDS011;6528;48.086;16.282;2024-01-30T10:12:01;7.47;;;6.87;;
12921;SDS011;6528;48.086;16.282;2024-01-30T10:14:30;7.20;;;6.60;;
12921;SDS011;6528;48.086;16.282;2024-01-30T10:16:57;8.67;;;7.93;;
12921;SDS011;6528;48.086;16.282;2024-01-30T10:19:25;7.80;;;7.10;;
12921;SDS011;6528;48.086;16.282;2024-01-30T10:21:53;6.80;;;6.20;;
12921;SDS011;6528;48.086;16.282;2024-01-30T10:24:24;7.90;;;7.30;;
12921;SDS011;6528;48.086;16.282;2024-01-30T10:26:51;7.43;;;6.83;;
12921;SDS011;6528;48.086;16.282;2024-01-30T10:29:20;7.97;;;7.27;;
12921;SDS011;6528;48.086;16.282;2024-01-30T10:34:30;6.80;;;6.20;;
12921;SDS011;6528;48.086;16.282;2024-01-30T10:36:59;8.40;;;7.70;;
12921;SDS011;6528;48.086;16.282;2024-01-30T10:39:43;7.40;;;6.70;;
12921;SDS011;6528;48.086;16.282;2024-01-30T10:42:16;8.40;;;7.60;;
12921;SDS011;6528;48.086;16.282;2024-01-30T10:47:16;7.70;;;6.90;;
12921;SDS011;6528;48.086;16.282;2024-01-30T10:49:48;7.33;;;6.73;;
12921;SDS011;6528;48.086;16.282;2024-01-30T10:52:18;7.27;;;6.70;;
12921;SDS011;6528;48.086;16.282;2024-01-30T10:54:47;7.40;;;6.80;;
12921;SDS011;6528;48.086;16.282;2024-01-30T10:57:16;8.30;;;7.60;;
12921;SDS011;6528;48.086;16.282;2024-01-30T10:59:44;8.30;;;7.50;;
12921;SDS011;6528;48.086;16.282;2024-01-30T11:02:13;7.33;;;6.70;;
12921;SDS011;6528;48.086;16.282;2024-01-30T11:04:41;8.57;;;7.87;;
12921;SDS011;6528;48.086;16.282;2024-01-30T11:07:15;7.40;;;6.80;;
12921;SDS011;6528;48.086;16.282;2024-01-30T11:09:53;8.43;;;7.73;;
12921;SDS011;6528;48.086;16.282;2024-01-30T11:12:24;9.07;;;8.27;;
12921;SDS011;6528;48.086;16.282;2024-01-30T11:15:02;8.30;;;7.60;;
12921;SDS011;6528;48.086;16.282;2024-01-30T11:20:19;7.93;;;7.23;;
12921;SDS011;6528;48.086;16.282;2024-01-30T11:22:59;7.80;;;7.20;;
12921;SDS011;6528;48.086;16.282;2024-01-30T11:25:32;9.20;;;8.40;;
12921;SDS011;6528;48.086;16.282;2024-01-30T11:28:00;8.33;;;7.63;;
12921;SDS011;6528;48.086;16.282;2024-01-30T11:30:28;7.97;;;7.37;;
12921;SDS011;6528;48.086;16.282;2024-01-30T11:33:13;8.80;;;8.00;;
12921;SDS011;6528;48.086;16.282;2024-01-30T11:35:42;9.07;;;8.37;;
12921;SDS011;6528;48.086;16.282;2024-01-30T11:38:13;8.60;;;7.70;;
12921;SDS011;6528;48.086;16.282;2024-01-30T11:40:41;9.00;;;8.17;;
12921;SDS011;6528;48.086;16.282;2024-01-30T11:43:10;12.77;;;9.47;;
12921;SDS011;6528;48.086;16.282;2024-01-30T11:45:38;11.30;;;10.20;;
12921;SDS011;6528;48.086;16.282;2024-01-30T11:48:07;12.23;;;9.80;;
12921;SDS011;6528;48.086;16.282;2024-01-30T11:50:37;11.10;;;10.00;;
12921;SDS011;6528;48.086;16.282;2024-01-30T11:53:06;14.50;;;10.73;;
12921;SDS011;6528;48.086;16.282;2024-01-30T11:55:33;14.87;;;11.73;;
12921;SDS011;6528;48.086;16.282;2024-01-30T11:58:03;14.43;;;10.77;;
12921;SDS011;6528;48.086;16.282;2024-01-30T12:00:31;13.73;;;11.20;;
12921;SDS011;6528;48.086;16.282;2024-01-30T12:03:00;12.43;;;10.37;;
12921;SDS011;6528;48.086;16.282;2024-01-30T12:05:30;14.90;;;11.67;;
12921;SDS011;6528;48.086;16.282;2024-01-30T12:07:58;14.63;;;11.67;;
12921;SDS011;6528;48.086;16.282;2024-01-30T12:10:27;13.43;;;10.80;;
12921;SDS011;6528;48.086;16.282;2024-01-30T12:12:55;14.17;;;11.20;;
12921;SDS011;6528;48.086;16.282;2024-01-30T12:15:24;16.43;;;11.50;;
12921;SDS011;6528;48.086;16.282;2024-01-30T12:17:52;13.93;;;11.47;;
12921;SDS011;6528;48.086;16.282;2024-01-30T12:20:30;15.67;;;12.23;;
12921;SDS011;6528;48.086;16.282;2024-01-30T12:22:57;14.80;;;11.40;;
12921;SDS011;6528;48.086;16.282;2024-01-30T12:25:24;14.73;;;11.20;;
12921;SDS011;6528;48.086;16.282;2024-01-30T12:27:51;14.60;;;10.93;;
12921;SDS011;6528;48.086;16.282;2024-01-30T12:30:19;15.17;;;11.73;;
12921;SDS011;6528;48.086;16.282;2024-01-30T12:32:51;15.93;;;11.17;;
12921;SDS011;6528;48.086;16.282;2024-01-30T12:35:19;15.77;;;11.83;;
12921;SDS011;6528;48.086;16.282;2024-01-30T12:37:48;14.07;;;12.50;;
12921;SDS011;6528;48.086;16.282;2024-01-30T12:40:17;14.80;;;11.33;;
12921;SDS011;6528;48.086;16.282;2024-01-30T12:42:48;15.77;;;11.67;;
12921;SDS011;6528;48.086;16.282;2024-01-30T12:45:16;12.27;;;10.53;;
12921;SDS011;6528;48.086;16.282;2024-01-30T12:47:49;13.93;;;11.97;;
12921;SDS011;6528;48.086;16.282;2024-01-30T12:50:17;13.00;;;10.37;;
12921;SDS011;6528;48.086;16.282;2024-01-30T12:52:45;17.70;;;12.73;;
12921;SDS011;6528;48.086;16.282;2024-01-30T12:55:15;18.13;;;11.57;;
12921;SDS011;6528;48.086;16.282;2024-01-30T12:57:44;18.30;;;11.80;;
12921;SDS011;6528;48.086;16.282;2024-01-30T13:00:13;16.00;;;11.43;;
12921;SDS011;6528;48.086;16.282;2024-01-30T13:02:40;15.13;;;11.30;;
12921;SDS011;6528;48.086;16.282;2024-01-30T13:05:09;13.93;;;10.90;;
12921;SDS011;6528;48.086;16.282;2024-01-30T13:07:37;15.43;;;11.20;;
12921;SDS011;6528;48.086;16.282;2024-01-30T13:10:04;11.40;;;10.20;;
12921;SDS011;6528;48.086;16.282;2024-01-30T13:12:32;10.83;;;9.60;;
12921;SDS011;6528;48.086;16.282;2024-01-30T13:15:00;12.07;;;9.70;;
12921;SDS011;6528;48.086;16.282;2024-01-30T13:17:28;11.67;;;9.80;;
12921;SDS011;6528;48.086;16.282;2024-01-30T13:19:55;10.17;;;9.17;;
12921;SDS011;6528;48.086;16.282;2024-01-30T13:22:35;13.70;;;9.40;;
12921;SDS011;6528;48.086;16.282;2024-01-30T13:25:06;11.00;;;9.00;;
12921;SDS011;6528;48.086;16.282;2024-01-30T13:27:34;14.80;;;10.10;;
12921;SDS011;6528;48.086;16.282;2024-01-30T13:30:06;11.17;;;9.70;;
12921;SDS011;6528;48.086;16.282;2024-01-30T13:32:36;12.20;;;9.27;;
12921;SDS011;6528;48.086;16.282;2024-01-30T13:35:04;11.80;;;9.77;;
12921;SDS011;6528;48.086;16.282;2024-01-30T13:37:32;11.20;;;9.47;;
12921;SDS011;6528;48.086;16.282;2024-01-30T13:40:00;11.00;;;8.83;;
12921;SDS011;6528;48.086;16.282;2024-01-30T13:42:30;11.60;;;9.57;;
12921;SDS011;6528;48.086;16.282;2024-01-30T13:44:58;10.27;;;8.07;;
12921;SDS011;6528;48.086;16.282;2024-01-30T13:47:25;11.83;;;8.47;;
12921;SDS011;6528;48.086;16.282;2024-01-30T13:49:53;9.33;;;8.40;;
12921;SDS011;6528;48.086;16.282;2024-01-30T13:52:20;10.93;;;8.13;;
12921;SDS011;6528;48.086;16.282;2024-01-30T13:54:54;9.20;;;8.03;;
12921;SDS011;6528;48.086;16.282;2024-01-30T13:57:21;8.80;;;7.93;;
12921;SDS011;6528;48.086;16.282;2024-01-30T13:59:48;9.20;;;7.33;;
12921;SDS011;6528;48.086;16.282;2024-01-30T14:02:16;7.80;;;7.10;;
12921;SDS011;6528;48.086;16.282;2024-01-30T14:04:43;9.23;;;8.17;;
12921;SDS011;6528;48.086;16.282;2024-01-30T14:07:11;9.20;;;8.10;;
12921;SDS011;6528;48.086;16.282;2024-01-30T14:09:38;9.20;;;8.30;;
12921;SDS011;6528;48.086;16.282;2024-01-30T14:12:06;9.50;;;7.60;;
12921;SDS011;6528;48.086;16.282;2024-01-30T14:14:33;7.83;;;7.10;;
12921;SDS011;6528;48.086;16.282;2024-01-30T14:17:02;12.27;;;8.00;;
12921;SDS011;6528;48.086;16.282;2024-01-30T14:19:35;8.50;;;7.37;;
12921;SDS011;6528;48.086;16.282;2024-01-30T14:22:03;11.07;;;7.53;;
12921;SDS011;6528;48.086;16.282;2024-01-30T14:24:30;8.00;;;7.20;;
12921;SDS011;6528;48.086;16.282;2024-01-30T14:26:58;8.47;;;7.20;;
12921;SDS011;6528;48.086;16.282;2024-01-30T14:29:26;9.63;;;7.70;;
12921;SDS011;6528;48.086;16.282;2024-01-30T14:31:53;7.20;;;6.57;;
12921;SDS011;6528;48.086;16.282;2024-01-30T14:34:21;10.57;;;7.40;;
12921;SDS011;6528;48.086;16.282;2024-01-30T14:36:49;7.70;;;7.00;;
12921;SDS011;6528;48.086;16.282;2024-01-30T14:39:16;7.33;;;6.60;;
12921;SDS011;6528;48.086;16.282;2024-01-30T14:41:44;7.57;;;6.87;;
12921;SDS011;6528;48.086;16.282;2024-01-30T14:44:12;6.80;;;6.10;;
12921;SDS011;6528;48.086;16.282;2024-01-30T14:46:40;8.33;;;7.53;;
12921;SDS011;6528;48.086;16.282;2024-01-30T14:49:08;7.33;;;6.63;;
12921;SDS011;6528;48.086;16.282;2024-01-30T14:51:36;7.67;;;6.93;;
12921;SDS011;6528;48.086;16.282;2024-01-30T14:54:04;6.87;;;6.20;;
12921;SDS011;6528;48.086;16.282;2024-01-30T14:56:32;7.27;;;6.50;;
12921;SDS011;6528;48.086;16.282;2024-01-30T14:58:59;7.60;;;6.70;;
12921;SDS011;6528;48.086;16.282;2024-01-30T15:01:27;6.57;;;6.07;;